Estación Meteorológica Peña el Pijo (Robertgarden) [ 01/17/18 13:57:06 CET ]

Fecha Hora Presion(HPa) Temp (°C) Humedad % Rocio (°C) Viento ( m/s) Direccion Lluvia 1Hora(mm) Lluvia 24H(mm) LLuvia Total(mm)
2018-Jan-12 01:01:50 1012.000 2.1 80 -1.0       3.10 36.26
2018-Jan-12 02:01:41 1012.000 1.8 79 -1.5       3.10 36.26
2018-Jan-12 03:03:11 1012.000 0.9 79 -2.4       3.10 36.26
2018-Jan-12 04:01:46 1011.600 0.9 79 -2.4       3.10 36.26
2018-Jan-12 05:01:40 1011.900 -0.2 79 -3.4       3.10 36.26
2018-Jan-12 06:01:50 1011.800 -0.5 80 -3.5       3.10 36.26
2018-Jan-12 07:01:54 1011.900 -0.5 80 -3.5       3.10 36.26
2018-Jan-12 08:01:59 1012.400 -1.1 81 -3.9       3.10 36.26
2018-Jan-12 09:01:39 1012.800 -1.4 81 -4.2       3.10 36.26
2018-Jan-12 10:01:41 1012.500 1.5 81 -1.4       3.10 36.26
2018-Jan-12 11:01:53 1013.100 5.8 72 1.2       2.07 36.26
2018-Jan-12 12:01:57 1013.100 7.9 61 0.8       1.55 36.26
2018-Jan-12 13:01:39 1012.300 8.1 56 -0.2       1.55 36.26
2018-Jan-12 14:01:47 1011.500 10.4 51 0.7       1.03 36.26
2018-Jan-12 15:01:53 1010.800 11.1 44 -0.8         36.26
2018-Jan-12 16:02:01 1010.400 10.8 43 -1.3         36.26
2018-Jan-12 17:01:49 1010.300 9.1 42 -3.2         36.26
2018-Jan-12 18:01:40 1010.700 6.4 49 -3.5         36.26
2018-Jan-12 19:02:03 1011.300 3.3 57 -4.4         36.26
2018-Jan-12 20:01:41 1011.500 2.9 59 -4.3         36.26
2018-Jan-12 21:01:43 1011.700 1.9 62 -4.6         36.26
2018-Jan-12 22:01:44 1011.500 1.3 64 -4.8         36.26
2018-Jan-12 23:01:52 1011.500 1.8 63 -4.5         36.26

Temperatura Máxima:11°    Temperatura Mínima:-1°
Presión Máxima:1013.100 Hpa    Presión Mínima:1010.300 Hpa


Volver